createdAt,value
2023-08-15T00:01:18.079Z,27.31
2023-08-15T00:06:14.711Z,26.88
2023-08-15T00:11:11.261Z,26.47
2023-08-15T00:16:07.787Z,26.33
2023-08-15T00:21:05.106Z,26.53
2023-08-15T00:26:02.029Z,26.64
2023-08-15T00:30:58.596Z,26.43
2023-08-15T00:35:55.241Z,26.43
2023-08-15T00:40:52.599Z,26.45
2023-08-15T00:45:50.074Z,26.17
2023-08-15T00:50:50.237Z,25.68
2023-08-15T00:55:47.749Z,25.51
2023-08-15T01:00:45.089Z,25.09
2023-08-15T01:05:42.553Z,25.03
2023-08-15T01:10:39.987Z,25.01
2023-08-15T01:15:39.292Z,25.19
2023-08-15T01:20:37.618Z,24.98
2023-08-15T01:25:47.237Z,25.40
2023-08-15T01:30:45.303Z,25.16
2023-08-15T01:35:44.966Z,25.19
2023-08-15T01:40:42.655Z,25.44
2023-08-15T01:45:39.300Z,24.57
2023-08-15T01:50:35.954Z,24.69
2023-08-15T01:55:32.532Z,25.02
2023-08-15T02:00:29.812Z,24.96
2023-08-15T02:05:27.674Z,24.79
2023-08-15T02:10:24.262Z,24.66
2023-08-15T02:15:20.809Z,24.53
2023-08-15T02:20:18.093Z,24.75
2023-08-15T02:25:14.728Z,24.21
2023-08-15T02:30:11.911Z,23.65
2023-08-15T02:35:09.281Z,23.44
2023-08-15T02:40:09.200Z,24.02
2023-08-15T02:45:06.685Z,24.18
2023-08-15T02:50:03.489Z,24.21
2023-08-15T02:55:00.291Z,24.57
2023-08-15T02:59:59.868Z,25.06
2023-08-15T03:04:56.911Z,25.27
2023-08-15T03:09:53.446Z,25.33
2023-08-15T03:14:50.131Z,24.81
2023-08-15T03:19:48.118Z,24.39
2023-08-15T03:24:46.125Z,24.33
2023-08-15T03:29:42.716Z,24.40
2023-08-15T03:34:40.179Z,23.76
2023-08-15T03:39:37.502Z,23.94
2023-08-15T03:44:34.058Z,24.27
2023-08-15T03:49:32.271Z,24.73
2023-08-15T03:54:28.856Z,24.97
2023-08-15T03:59:26.173Z,25.28
2023-08-15T04:04:22.785Z,25.68
2023-08-15T04:09:19.305Z,25.76
2023-08-15T04:14:15.849Z,25.74
2023-08-15T04:19:13.226Z,25.58
2023-08-15T04:24:09.879Z,25.26
2023-08-15T04:29:08.288Z,25.28
2023-08-15T04:34:06.308Z,25.33
2023-08-15T04:39:03.953Z,25.36
2023-08-15T04:44:00.748Z,25.23
2023-08-15T04:48:57.473Z,24.58
2023-08-15T04:53:54.368Z,24.89
2023-08-15T04:58:51.805Z,25.20
2023-08-15T05:03:48.454Z,25.14
2023-08-15T05:08:44.985Z,25.34
2023-08-15T05:13:41.551Z,24.49
2023-08-15T05:18:38.922Z,24.29
2023-08-15T05:23:35.737Z,24.40
2023-08-15T05:28:33.663Z,24.08
2023-08-15T05:33:30.856Z,24.36
2023-08-15T05:38:28.090Z,24.53
2023-08-15T05:43:24.810Z,24.90
2023-08-15T05:48:21.387Z,24.56
2023-08-15T05:53:18.200Z,24.32
2023-08-15T05:58:15.484Z,24.28
2023-08-15T06:03:12.164Z,24.38
2023-08-15T06:08:13.506Z,24.37
2023-08-15T06:13:13.105Z,24.53
2023-08-15T06:18:10.454Z,24.47
2023-08-15T06:23:07.215Z,24.68
2023-08-15T06:28:07.225Z,24.56
2023-08-15T06:33:04.008Z,24.58
2023-08-15T06:38:01.456Z,24.64
2023-08-15T06:42:58.198Z,24.66
2023-08-15T06:48:10.575Z,24.51
2023-08-15T06:53:07.959Z,24.40
2023-08-15T06:58:06.090Z,24.62
2023-08-15T07:03:02.900Z,24.81
2023-08-15T07:08:03.725Z,24.93
2023-08-15T07:13:04.281Z,25.05
2023-08-15T07:18:01.462Z,24.98
2023-08-15T07:22:58.198Z,25.16
2023-08-15T07:27:54.921Z,25.51
2023-08-15T07:32:52.844Z,25.72
2023-08-15T07:37:49.522Z,25.91
2023-08-15T07:42:46.640Z,25.66
2023-08-15T07:47:45.923Z,25.52
2023-08-15T07:52:43.883Z,25.62
2023-08-15T07:57:40.641Z,25.81
2023-08-15T08:02:37.500Z,26.13
2023-08-15T08:07:37.193Z,26.19
2023-08-15T08:12:36.811Z,26.20
2023-08-15T08:17:33.611Z,26.35
2023-08-15T08:22:30.443Z,26.28
2023-08-15T08:27:27.092Z,26.24
2023-08-15T08:32:24.523Z,26.41
2023-08-15T08:37:21.434Z,26.76
2023-08-15T08:42:18.296Z,26.70
2023-08-15T08:47:16.499Z,26.82
2023-08-15T08:52:16.908Z,26.92
2023-08-15T08:57:13.873Z,27.08
2023-08-15T09:02:12.272Z,27.21
2023-08-15T09:07:11.887Z,27.24
2023-08-15T09:12:09.458Z,27.21
2023-08-15T09:17:06.204Z,27.61
2023-08-15T09:22:18.840Z,27.84
2023-08-15T09:27:16.472Z,28.02
2023-08-15T09:32:23.189Z,28.13
2023-08-15T09:37:28.501Z,28.24
2023-08-15T09:42:25.936Z,28.34
2023-08-15T09:47:22.928Z,28.35
2023-08-15T09:52:24.574Z,28.40
2023-08-15T09:57:23.043Z,28.62
2023-08-15T10:02:22.508Z,28.72
2023-08-15T10:07:21.858Z,28.93
2023-08-15T10:12:19.668Z,29.28
2023-08-15T10:17:17.835Z,29.36
2023-08-15T10:22:23.684Z,29.80
2023-08-15T10:27:21.083Z,30.09
2023-08-15T10:32:28.298Z,29.79
2023-08-15T10:37:34.596Z,29.91
2023-08-15T10:42:52.854Z,29.75
2023-08-15T10:47:55.849Z,29.77
2023-08-15T10:52:58.431Z,29.76
2023-08-15T10:57:55.586Z,29.88
2023-08-15T11:02:52.340Z,30.06
2023-08-15T11:07:52.078Z,30.09
2023-08-15T11:12:51.646Z,30.66
2023-08-15T11:17:57.237Z,31.10
2023-08-15T11:22:58.692Z,30.99
2023-08-15T11:27:58.774Z,31.35
2023-08-15T11:32:55.506Z,31.42
2023-08-15T11:37:52.481Z,31.38
2023-08-15T11:42:49.186Z,31.45
2023-08-15T11:48:06.985Z,31.34
2023-08-15T11:53:09.331Z,31.36
2023-08-15T11:58:21.446Z,31.53
2023-08-15T12:03:18.401Z,31.68
2023-08-15T12:08:16.421Z,31.73
2023-08-15T12:13:13.426Z,31.66
2023-08-15T12:18:11.203Z,31.35
2023-08-15T12:23:15.346Z,31.23
2023-08-15T12:28:18.296Z,31.22
2023-08-15T12:33:27.479Z,31.22
2023-08-15T12:38:34.242Z,31.24
2023-08-15T12:43:33.110Z,31.21
2023-08-15T12:48:34.946Z,31.40
2023-08-15T12:53:33.310Z,31.49
2023-08-15T12:58:29.958Z,31.71
2023-08-15T13:03:27.601Z,31.69
2023-08-15T13:08:25.010Z,31.70
2023-08-15T13:13:24.010Z,31.95
2023-08-15T13:18:20.813Z,31.79
2023-08-15T13:23:21.155Z,32.10
2023-08-15T13:28:17.922Z,31.96
2023-08-15T13:33:16.106Z,31.69
2023-08-15T13:38:15.708Z,31.63
2023-08-15T13:43:14.282Z,31.63
2023-08-15T13:48:16.065Z,32.03
2023-08-15T13:53:14.042Z,31.80
2023-08-15T13:58:10.618Z,31.59
2023-08-15T14:03:09.901Z,31.44
2023-08-15T14:08:07.021Z,31.35
2023-08-15T14:13:05.482Z,31.85
2023-08-15T14:18:04.158Z,31.59
2023-08-15T14:23:01.504Z,31.59
2023-08-15T14:28:01.006Z,31.62
2023-08-15T14:32:57.750Z,31.45
2023-08-15T14:37:54.574Z,31.31
2023-08-15T14:42:51.854Z,31.23
2023-08-15T14:47:48.593Z,31.05
2023-08-15T14:52:45.388Z,30.83
2023-08-15T14:57:41.954Z,30.69
2023-08-15T15:02:39.402Z,30.65
2023-08-15T15:07:36.132Z,30.50
2023-08-15T15:12:35.581Z,30.46
2023-08-15T15:17:32.507Z,30.55
2023-08-15T15:22:29.939Z,30.77
2023-08-15T15:27:29.171Z,30.75
2023-08-15T15:32:25.863Z,30.71
2023-08-15T15:37:24.087Z,30.49
2023-08-15T15:42:24.556Z,30.50
2023-08-15T15:47:22.610Z,30.40
2023-08-15T15:52:21.948Z,30.37
2023-08-15T15:57:18.784Z,30.17
2023-08-15T16:02:17.810Z,30.16
2023-08-15T16:07:17.301Z,30.09
2023-08-15T16:12:16.046Z,30.13
2023-08-15T16:17:15.440Z,30.19
2023-08-15T16:22:15.053Z,30.16
2023-08-15T16:27:11.939Z,30.08
2023-08-15T16:32:08.633Z,30.01
2023-08-15T16:37:07.318Z,29.91
2023-08-15T16:42:04.970Z,29.81
2023-08-15T16:47:01.882Z,29.88
2023-08-15T16:51:58.733Z,29.94
2023-08-15T16:56:55.278Z,29.96
2023-08-15T17:01:52.808Z,29.97
2023-08-15T17:06:49.827Z,29.92
2023-08-15T17:11:48.570Z,30.01
2023-08-15T17:16:48.308Z,29.82
2023-08-15T17:21:45.639Z,29.85
2023-08-15T17:26:42.276Z,29.91
2023-08-15T17:31:40.363Z,29.70
2023-08-15T17:36:41.417Z,29.64
2023-08-15T17:41:39.080Z,29.71
2023-08-15T17:46:39.003Z,29.76
2023-08-15T17:51:36.349Z,29.51
2023-08-15T17:56:33.100Z,29.51
2023-08-15T18:01:31.209Z,29.50
2023-08-15T18:06:28.816Z,29.61
2023-08-15T18:11:25.562Z,29.52
2023-08-15T18:16:22.560Z,29.36
2023-08-15T18:21:20.000Z,29.33
2023-08-15T18:26:21.722Z,29.21
2023-08-15T18:31:18.766Z,29.30
2023-08-15T18:36:15.699Z,29.22
2023-08-15T18:41:13.073Z,29.24
2023-08-15T18:46:09.878Z,29.37
2023-08-15T18:51:08.022Z,29.12
2023-08-15T18:56:07.387Z,29.08
2023-08-15T19:01:06.011Z,29.07
2023-08-15T19:06:05.980Z,28.94
2023-08-15T19:11:02.676Z,29.23
2023-08-15T19:15:59.371Z,29.02
2023-08-15T19:20:58.082Z,29.03
2023-08-15T19:25:57.848Z,28.72
2023-08-15T19:30:54.671Z,28.80
2023-08-15T19:35:51.349Z,28.51
2023-08-15T19:40:48.761Z,28.70
2023-08-15T19:45:45.371Z,28.92
2023-08-15T19:50:41.940Z,28.92
2023-08-15T19:55:39.435Z,28.91
2023-08-15T20:00:37.400Z,29.03
2023-08-15T20:05:34.010Z,28.92
2023-08-15T20:10:30.634Z,28.78
2023-08-15T20:15:27.266Z,28.47
2023-08-15T20:20:24.547Z,28.68
2023-08-15T20:25:21.083Z,28.76
2023-08-15T20:30:18.326Z,28.74
2023-08-15T20:35:14.967Z,28.67
2023-08-15T20:40:12.623Z,28.55
2023-08-15T20:45:11.044Z,28.44
2023-08-15T20:50:09.837Z,28.37
2023-08-15T20:55:06.783Z,28.27
2023-08-15T21:00:05.322Z,28.39
2023-08-15T21:05:02.527Z,28.21
2023-08-15T21:09:59.315Z,28.13
2023-08-15T21:14:56.239Z,28.01
2023-08-15T21:19:53.571Z,28.23
2023-08-15T21:24:50.213Z,28.14
2023-08-15T21:29:46.834Z,28.13
2023-08-15T21:34:43.631Z,27.94
2023-08-15T21:39:43.682Z,27.83
2023-08-15T21:44:40.462Z,27.33
2023-08-15T21:49:37.249Z,27.12
2023-08-15T21:54:33.958Z,27.32
2023-08-15T21:59:31.282Z,27.04
2023-08-15T22:04:27.999Z,26.73
2023-08-15T22:09:24.834Z,26.78
2023-08-15T22:14:22.175Z,26.60
2023-08-15T22:19:19.676Z,26.67
2023-08-15T22:24:16.329Z,26.92
2023-08-15T22:29:12.971Z,26.97
2023-08-15T22:34:09.559Z,27.04
2023-08-15T22:39:09.674Z,27.15
2023-08-15T22:44:06.525Z,27.12
2023-08-15T22:49:04.568Z,27.22
2023-08-15T22:54:01.597Z,26.86
2023-08-15T22:58:58.939Z,26.71
2023-08-15T23:03:55.591Z,26.43
2023-08-15T23:08:52.258Z,26.50
2023-08-15T23:13:48.888Z,26.61
2023-08-15T23:18:46.267Z,26.58
2023-08-15T23:23:45.148Z,26.82
2023-08-15T23:28:41.755Z,26.95
2023-08-15T23:33:38.486Z,26.86
2023-08-15T23:38:35.733Z,26.89
2023-08-15T23:43:32.380Z,26.84
2023-08-15T23:48:29.052Z,26.80
2023-08-15T23:53:25.670Z,26.91
2023-08-15T23:58:22.988Z,26.83
